sensor_id;sensor_type;location;lat;lon;timestamp;temperature;humidity
75738;DHT22;64356;45.638;13.764;2023-12-20T00:01:17;18.80;49.80
75738;DHT22;64356;45.638;13.764;2023-12-20T00:03:42;18.80;49.90
75738;DHT22;64356;45.638;13.764;2023-12-20T00:06:08;18.80;49.80
75738;DHT22;64356;45.638;13.764;2023-12-20T00:08:33;18.80;49.90
75738;DHT22;64356;45.638;13.764;2023-12-20T00:10:59;18.70;49.80
75738;DHT22;64356;45.638;13.764;2023-12-20T00:13:24;18.80;49.90
75738;DHT22;64356;45.638;13.764;2023-12-20T00:15:50;18.80;49.90
75738;DHT22;64356;45.638;13.764;2023-12-20T00:18:15;18.70;49.90
75738;DHT22;64356;45.638;13.764;2023-12-20T00:20:41;18.70;49.70
75738;DHT22;64356;45.638;13.764;2023-12-20T00:23:07;18.70;50.20
75738;DHT22;64356;45.638;13.764;2023-12-20T00:25:33;18.70;49.60
75738;DHT22;64356;45.638;13.764;2023-12-20T00:27:59;18.70;49.60
75738;DHT22;64356;45.638;13.764;2023-12-20T00:30:25;18.70;49.50
75738;DHT22;64356;45.638;13.764;2023-12-20T00:32:50;18.70;49.50
75738;DHT22;64356;45.638;13.764;2023-12-20T00:35:16;18.70;49.50
75738;DHT22;64356;45.638;13.764;2023-12-20T00:37:42;18.70;49.50
75738;DHT22;64356;45.638;13.764;2023-12-20T00:40:08;18.70;49.50
75738;DHT22;64356;45.638;13.764;2023-12-20T00:42:34;18.70;49.50
75738;DHT22;64356;45.638;13.764;2023-12-20T00:44:59;18.70;49.90
75738;DHT22;64356;45.638;13.764;2023-12-20T00:47:25;18.70;49.40
75738;DHT22;64356;45.638;13.764;2023-12-20T00:49:51;18.70;49.40
75738;DHT22;64356;45.638;13.764;2023-12-20T00:52:17;18.70;49.30
75738;DHT22;64356;45.638;13.764;2023-12-20T00:54:43;18.70;49.30
75738;DHT22;64356;45.638;13.764;2023-12-20T00:57:08;18.60;49.20
75738;DHT22;64356;45.638;13.764;2023-12-20T00:59:34;18.60;49.20
75738;DHT22;64356;45.638;13.764;2023-12-20T01:02:00;18.60;49.20
75738;DHT22;64356;45.638;13.764;2023-12-20T01:04:25;18.60;49.20
75738;DHT22;64356;45.638;13.764;2023-12-20T01:06:51;18.60;49.10
75738;DHT22;64356;45.638;13.764;2023-12-20T01:09:17;18.60;49.30
75738;DHT22;64356;45.638;13.764;2023-12-20T01:11:43;18.70;49.30
75738;DHT22;64356;45.638;13.764;2023-12-20T01:14:09;18.60;49.20
75738;DHT22;64356;45.638;13.764;2023-12-20T01:16:35;18.60;49.00
75738;DHT22;64356;45.638;13.764;2023-12-20T01:19:00;18.60;49.00
75738;DHT22;64356;45.638;13.764;2023-12-20T01:21:26;18.60;49.00
75738;DHT22;64356;45.638;13.764;2023-12-20T01:23:51;18.60;48.90
75738;DHT22;64356;45.638;13.764;2023-12-20T01:26:17;18.60;48.90
75738;DHT22;64356;45.638;13.764;2023-12-20T01:28:42;18.60;48.80
75738;DHT22;64356;45.638;13.764;2023-12-20T01:31:08;18.60;48.60
75738;DHT22;64356;45.638;13.764;2023-12-20T01:33:34;18.60;48.50
75738;DHT22;64356;45.638;13.764;2023-12-20T01:35:59;18.60;48.60
75738;DHT22;64356;45.638;13.764;2023-12-20T01:38:25;18.60;48.60
75738;DHT22;64356;45.638;13.764;2023-12-20T01:40:50;18.60;48.60
75738;DHT22;64356;45.638;13.764;2023-12-20T01:43:16;18.50;48.60
75738;DHT22;64356;45.638;13.764;2023-12-20T01:45:42;18.60;48.80
75738;DHT22;64356;45.638;13.764;2023-12-20T01:48:08;18.50;48.60
75738;DHT22;64356;45.638;13.764;2023-12-20T01:50:33;18.50;48.60
75738;DHT22;64356;45.638;13.764;2023-12-20T01:53:01;18.60;48.70
75738;DHT22;64356;45.638;13.764;2023-12-20T01:55:27;18.50;48.70
75738;DHT22;64356;45.638;13.764;2023-12-20T01:57:55;18.50;48.50
75738;DHT22;64356;45.638;13.764;2023-12-20T02:00:21;18.50;48.40
75738;DHT22;64356;45.638;13.764;2023-12-20T02:02:48;18.50;48.50
75738;DHT22;64356;45.638;13.764;2023-12-20T02:05:15;18.50;48.50
75738;DHT22;64356;45.638;13.764;2023-12-20T02:07:41;18.50;48.40
75738;DHT22;64356;45.638;13.764;2023-12-20T02:10:06;18.50;48.40
75738;DHT22;64356;45.638;13.764;2023-12-20T02:12:33;18.50;48.30
75738;DHT22;64356;45.638;13.764;2023-12-20T02:14:58;18.50;48.30
75738;DHT22;64356;45.638;13.764;2023-12-20T02:17:24;18.50;48.20
75738;DHT22;64356;45.638;13.764;2023-12-20T02:19:50;18.50;48.20
75738;DHT22;64356;45.638;13.764;2023-12-20T02:22:16;18.50;48.30
75738;DHT22;64356;45.638;13.764;2023-12-20T02:24:41;18.50;48.30
75738;DHT22;64356;45.638;13.764;2023-12-20T02:27:07;18.50;48.30
75738;DHT22;64356;45.638;13.764;2023-12-20T02:29:33;18.40;48.20
75738;DHT22;64356;45.638;13.764;2023-12-20T02:31:59;18.50;48.30
75738;DHT22;64356;45.638;13.764;2023-12-20T02:34:25;18.50;48.20
75738;DHT22;64356;45.638;13.764;2023-12-20T02:36:50;18.50;48.40
75738;DHT22;64356;45.638;13.764;2023-12-20T02:39:16;18.50;48.40
75738;DHT22;64356;45.638;13.764;2023-12-20T02:41:41;18.40;48.40
75738;DHT22;64356;45.638;13.764;2023-12-20T02:44:07;18.50;48.30
75738;DHT22;64356;45.638;13.764;2023-12-20T02:46:32;18.40;48.20
75738;DHT22;64356;45.638;13.764;2023-12-20T02:48:58;18.40;48.30
75738;DHT22;64356;45.638;13.764;2023-12-20T02:51:23;18.40;48.30
75738;DHT22;64356;45.638;13.764;2023-12-20T02:53:49;18.40;48.40
75738;DHT22;64356;45.638;13.764;2023-12-20T02:56:14;18.50;48.50
75738;DHT22;64356;45.638;13.764;2023-12-20T02:58:40;18.40;48.40
75738;DHT22;64356;45.638;13.764;2023-12-20T03:01:05;18.40;48.40
75738;DHT22;64356;45.638;13.764;2023-12-20T03:03:31;18.40;48.40
75738;DHT22;64356;45.638;13.764;2023-12-20T03:05:57;18.40;48.40
75738;DHT22;64356;45.638;13.764;2023-12-20T03:08:22;18.40;48.40
75738;DHT22;64356;45.638;13.764;2023-12-20T03:10:48;18.40;48.50
75738;DHT22;64356;45.638;13.764;2023-12-20T03:13:13;18.40;48.60
75738;DHT22;64356;45.638;13.764;2023-12-20T03:15:40;18.40;48.70
75738;DHT22;64356;45.638;13.764;2023-12-20T03:18:05;18.40;48.70
75738;DHT22;64356;45.638;13.764;2023-12-20T03:20:31;18.40;48.70
75738;DHT22;64356;45.638;13.764;2023-12-20T03:23:02;18.40;48.70
75738;DHT22;64356;45.638;13.764;2023-12-20T03:25:28;18.40;48.70
75738;DHT22;64356;45.638;13.764;2023-12-20T03:27:53;18.40;48.70
75738;DHT22;64356;45.638;13.764;2023-12-20T03:30:19;18.40;48.80
75738;DHT22;64356;45.638;13.764;2023-12-20T03:32:44;18.40;48.70
75738;DHT22;64356;45.638;13.764;2023-12-20T03:35:10;18.40;48.70
75738;DHT22;64356;45.638;13.764;2023-12-20T03:37:36;18.40;48.70
75738;DHT22;64356;45.638;13.764;2023-12-20T03:40:02;18.40;48.70
75738;DHT22;64356;45.638;13.764;2023-12-20T03:42:28;18.30;48.60
75738;DHT22;64356;45.638;13.764;2023-12-20T03:44:53;18.40;48.60
75738;DHT22;64356;45.638;13.764;2023-12-20T03:47:19;18.30;48.60
75738;DHT22;64356;45.638;13.764;2023-12-20T03:49:44;18.30;48.70
75738;DHT22;64356;45.638;13.764;2023-12-20T03:52:10;18.40;48.80
75738;DHT22;64356;45.638;13.764;2023-12-20T03:54:35;18.30;48.70
75738;DHT22;64356;45.638;13.764;2023-12-20T03:57:01;18.30;48.80
75738;DHT22;64356;45.638;13.764;2023-12-20T03:59:27;18.30;48.90
75738;DHT22;64356;45.638;13.764;2023-12-20T04:01:52;18.30;48.80
75738;DHT22;64356;45.638;13.764;2023-12-20T04:04:18;18.40;48.90
75738;DHT22;64356;45.638;13.764;2023-12-20T04:06:44;18.30;48.80
75738;DHT22;64356;45.638;13.764;2023-12-20T04:09:09;18.30;48.80
75738;DHT22;64356;45.638;13.764;2023-12-20T04:11:36;18.30;49.10
75738;DHT22;64356;45.638;13.764;2023-12-20T04:14:01;18.30;49.00
75738;DHT22;64356;45.638;13.764;2023-12-20T04:16:27;18.40;47.20
75738;DHT22;64356;45.638;13.764;2023-12-20T04:18:52;18.70;46.30
75738;DHT22;64356;45.638;13.764;2023-12-20T04:21:18;19.10;45.40
75738;DHT22;64356;45.638;13.764;2023-12-20T04:23:44;19.40;44.90
75738;DHT22;64356;45.638;13.764;2023-12-20T04:26:10;19.60;44.40
75738;DHT22;64356;45.638;13.764;2023-12-20T04:28:35;19.80;43.70
75738;DHT22;64356;45.638;13.764;2023-12-20T04:31:01;20.00;43.40
75738;DHT22;64356;45.638;13.764;2023-12-20T04:33:26;20.10;43.10
75738;DHT22;64356;45.638;13.764;2023-12-20T04:35:52;20.20;42.80
75738;DHT22;64356;45.638;13.764;2023-12-20T04:38:17;20.30;42.70
75738;DHT22;64356;45.638;13.764;2023-12-20T04:40:43;20.40;42.50
75738;DHT22;64356;45.638;13.764;2023-12-20T04:43:08;20.50;42.40
75738;DHT22;64356;45.638;13.764;2023-12-20T04:45:34;20.60;42.20
75738;DHT22;64356;45.638;13.764;2023-12-20T04:48:01;20.70;41.90
75738;DHT22;64356;45.638;13.764;2023-12-20T04:50:27;20.80;41.60
75738;DHT22;64356;45.638;13.764;2023-12-20T04:52:52;20.90;41.60
75738;DHT22;64356;45.638;13.764;2023-12-20T04:55:18;21.00;41.40
75738;DHT22;64356;45.638;13.764;2023-12-20T04:57:43;21.10;41.30
75738;DHT22;64356;45.638;13.764;2023-12-20T05:00:09;21.20;41.00
75738;DHT22;64356;45.638;13.764;2023-12-20T05:02:35;21.30;41.00
75738;DHT22;64356;45.638;13.764;2023-12-20T05:05:01;21.30;40.80
75738;DHT22;64356;45.638;13.764;2023-12-20T05:07:26;21.50;40.70
75738;DHT22;64356;45.638;13.764;2023-12-20T05:09:52;21.50;40.50
75738;DHT22;64356;45.638;13.764;2023-12-20T05:12:17;21.60;40.20
75738;DHT22;64356;45.638;13.764;2023-12-20T05:14:43;21.60;40.10
75738;DHT22;64356;45.638;13.764;2023-12-20T05:17:08;21.70;40.20
75738;DHT22;64356;45.638;13.764;2023-12-20T05:19:34;21.70;40.20
75738;DHT22;64356;45.638;13.764;2023-12-20T05:22:01;21.70;40.00
75738;DHT22;64356;45.638;13.764;2023-12-20T05:24:27;21.70;40.00
75738;DHT22;64356;45.638;13.764;2023-12-20T05:26:52;21.70;40.00
75738;DHT22;64356;45.638;13.764;2023-12-20T05:29:18;21.70;40.10
75738;DHT22;64356;45.638;13.764;2023-12-20T05:31:43;21.70;40.10
75738;DHT22;64356;45.638;13.764;2023-12-20T05:34:09;21.70;40.00
75738;DHT22;64356;45.638;13.764;2023-12-20T05:36:34;21.60;40.60
75738;DHT22;64356;45.638;13.764;2023-12-20T05:39:00;21.70;40.10
75738;DHT22;64356;45.638;13.764;2023-12-20T05:41:26;21.70;40.10
75738;DHT22;64356;45.638;13.764;2023-12-20T05:43:51;21.70;40.00
75738;DHT22;64356;45.638;13.764;2023-12-20T05:46:17;21.70;40.00
75738;DHT22;64356;45.638;13.764;2023-12-20T05:48:42;21.70;40.00
75738;DHT22;64356;45.638;13.764;2023-12-20T05:51:10;21.70;40.10
75738;DHT22;64356;45.638;13.764;2023-12-20T05:53:36;21.60;39.90
75738;DHT22;64356;45.638;13.764;2023-12-20T05:56:02;21.60;40.00
75738;DHT22;64356;45.638;13.764;2023-12-20T05:58:27;21.60;39.90
75738;DHT22;64356;45.638;13.764;2023-12-20T06:00:53;21.70;40.00
75738;DHT22;64356;45.638;13.764;2023-12-20T06:03:18;21.70;40.00
75738;DHT22;64356;45.638;13.764;2023-12-20T06:05:44;21.70;40.00
75738;DHT22;64356;45.638;13.764;2023-12-20T06:08:10;21.70;39.90
75738;DHT22;64356;45.638;13.764;2023-12-20T06:10:35;21.70;40.10
75738;DHT22;64356;45.638;13.764;2023-12-20T06:13:01;21.70;40.30
75738;DHT22;64356;45.638;13.764;2023-12-20T06:15:26;21.70;39.80
75738;DHT22;64356;45.638;13.764;2023-12-20T06:17:52;21.70;39.80
75738;DHT22;64356;45.638;13.764;2023-12-20T06:20:17;21.70;39.40
75738;DHT22;64356;45.638;13.764;2023-12-20T06:22:43;21.70;39.70
75738;DHT22;64356;45.638;13.764;2023-12-20T06:25:08;21.70;39.80
75738;DHT22;64356;45.638;13.764;2023-12-20T06:27:34;21.70;39.70
75738;DHT22;64356;45.638;13.764;2023-12-20T06:29:59;21.80;39.90
75738;DHT22;64356;45.638;13.764;2023-12-20T06:32:25;21.80;40.00
75738;DHT22;64356;45.638;13.764;2023-12-20T06:34:50;21.80;39.60
75738;DHT22;64356;45.638;13.764;2023-12-20T06:37:16;21.80;39.80
75738;DHT22;64356;45.638;13.764;2023-12-20T06:39:42;21.80;39.00
75738;DHT22;64356;45.638;13.764;2023-12-20T06:42:07;21.90;38.70
75738;DHT22;64356;45.638;13.764;2023-12-20T06:44:33;21.90;38.20
75738;DHT22;64356;45.638;13.764;2023-12-20T06:46:59;21.90;37.60
75738;DHT22;64356;45.638;13.764;2023-12-20T06:49:24;21.80;37.20
75738;DHT22;64356;45.638;13.764;2023-12-20T06:51:50;21.70;37.90
75738;DHT22;64356;45.638;13.764;2023-12-20T06:54:15;21.60;38.90
75738;DHT22;64356;45.638;13.764;2023-12-20T06:56:41;21.70;39.50
75738;DHT22;64356;45.638;13.764;2023-12-20T06:59:06;21.50;37.40
75738;DHT22;64356;45.638;13.764;2023-12-20T07:01:32;21.00;37.00
75738;DHT22;64356;45.638;13.764;2023-12-20T07:03:57;20.70;39.00
75738;DHT22;64356;45.638;13.764;2023-12-20T07:06:23;20.70;40.60
75738;DHT22;64356;45.638;13.764;2023-12-20T07:08:51;20.80;41.30
75738;DHT22;64356;45.638;13.764;2023-12-20T07:11:17;21.00;41.50
75738;DHT22;64356;45.638;13.764;2023-12-20T07:13:42;21.20;40.60
75738;DHT22;64356;45.638;13.764;2023-12-20T07:16:08;21.30;40.40
75738;DHT22;64356;45.638;13.764;2023-12-20T07:18:33;21.50;40.60
75738;DHT22;64356;45.638;13.764;2023-12-20T07:20:59;21.50;40.70
75738;DHT22;64356;45.638;13.764;2023-12-20T07:23:24;21.60;40.60
75738;DHT22;64356;45.638;13.764;2023-12-20T07:25:51;21.60;41.10
75738;DHT22;64356;45.638;13.764;2023-12-20T07:28:17;21.70;41.20
75738;DHT22;64356;45.638;13.764;2023-12-20T07:30:43;21.70;40.90
75738;DHT22;64356;45.638;13.764;2023-12-20T07:33:08;21.80;40.30
75738;DHT22;64356;45.638;13.764;2023-12-20T07:35:34;21.80;40.10
75738;DHT22;64356;45.638;13.764;2023-12-20T07:38:00;21.80;40.30
75738;DHT22;64356;45.638;13.764;2023-12-20T07:40:26;21.80;40.20
75738;DHT22;64356;45.638;13.764;2023-12-20T07:42:51;21.90;40.20
75738;DHT22;64356;45.638;13.764;2023-12-20T07:45:17;21.90;40.20
75738;DHT22;64356;45.638;13.764;2023-12-20T07:47:43;21.90;41.00
75738;DHT22;64356;45.638;13.764;2023-12-20T07:50:08;21.90;40.00
75738;DHT22;64356;45.638;13.764;2023-12-20T07:52:34;21.90;40.10
75738;DHT22;64356;45.638;13.764;2023-12-20T07:54:59;21.90;40.20
75738;DHT22;64356;45.638;13.764;2023-12-20T07:57:28;22.00;40.30
75738;DHT22;64356;45.638;13.764;2023-12-20T07:59:53;22.00;41.90
75738;DHT22;64356;45.638;13.764;2023-12-20T08:02:19;22.00;42.00
75738;DHT22;64356;45.638;13.764;2023-12-20T08:04:44;22.00;41.50
75738;DHT22;64356;45.638;13.764;2023-12-20T08:07:10;22.00;41.30
75738;DHT22;64356;45.638;13.764;2023-12-20T08:09:35;22.00;41.10
75738;DHT22;64356;45.638;13.764;2023-12-20T08:12:02;22.10;41.30
75738;DHT22;64356;45.638;13.764;2023-12-20T08:14:28;22.10;41.20
75738;DHT22;64356;45.638;13.764;2023-12-20T08:16:53;22.10;41.00
75738;DHT22;64356;45.638;13.764;2023-12-20T08:19:20;22.20;41.00
75738;DHT22;64356;45.638;13.764;2023-12-20T08:21:45;22.20;41.00
75738;DHT22;64356;45.638;13.764;2023-12-20T08:24:11;22.20;40.80
75738;DHT22;64356;45.638;13.764;2023-12-20T08:26:37;22.20;41.30
75738;DHT22;64356;45.638;13.764;2023-12-20T08:29:02;22.30;41.20
75738;DHT22;64356;45.638;13.764;2023-12-20T08:31:28;22.30;40.60
75738;DHT22;64356;45.638;13.764;2023-12-20T08:33:54;22.30;40.70
75738;DHT22;64356;45.638;13.764;2023-12-20T08:36:19;22.30;41.00
75738;DHT22;64356;45.638;13.764;2023-12-20T08:38:47;22.30;41.50
75738;DHT22;64356;45.638;13.764;2023-12-20T08:41:13;22.20;40.90
75738;DHT22;64356;45.638;13.764;2023-12-20T08:43:39;22.20;41.00
75738;DHT22;64356;45.638;13.764;2023-12-20T08:46:07;22.20;41.00
75738;DHT22;64356;45.638;13.764;2023-12-20T08:48:35;22.10;41.60
75738;DHT22;64356;45.638;13.764;2023-12-20T08:51:00;22.10;41.40
75738;DHT22;64356;45.638;13.764;2023-12-20T08:53:26;22.10;42.30
75738;DHT22;64356;45.638;13.764;2023-12-20T08:55:52;22.10;42.90
75738;DHT22;64356;45.638;13.764;2023-12-20T08:58:17;22.20;43.30
75738;DHT22;64356;45.638;13.764;2023-12-20T09:00:43;22.30;43.20
75738;DHT22;64356;45.638;13.764;2023-12-20T09:03:09;22.30;44.00
75738;DHT22;64356;45.638;13.764;2023-12-20T09:05:34;22.40;45.20
75738;DHT22;64356;45.638;13.764;2023-12-20T09:08:00;22.50;45.30
75738;DHT22;64356;45.638;13.764;2023-12-20T09:10:26;22.50;45.10
75738;DHT22;64356;45.638;13.764;2023-12-20T09:12:52;22.50;45.60
75738;DHT22;64356;45.638;13.764;2023-12-20T09:15:22;22.50;46.20
75738;DHT22;64356;45.638;13.764;2023-12-20T09:17:48;22.50;45.60
75738;DHT22;64356;45.638;13.764;2023-12-20T09:20:13;22.50;45.60
75738;DHT22;64356;45.638;13.764;2023-12-20T09:22:39;22.50;45.20
75738;DHT22;64356;45.638;13.764;2023-12-20T09:25:05;22.50;45.80
75738;DHT22;64356;45.638;13.764;2023-12-20T09:27:31;22.40;45.70
75738;DHT22;64356;45.638;13.764;2023-12-20T09:29:56;22.30;45.90
75738;DHT22;64356;45.638;13.764;2023-12-20T09:32:22;22.30;45.50
75738;DHT22;64356;45.638;13.764;2023-12-20T09:34:47;22.20;45.60
75738;DHT22;64356;45.638;13.764;2023-12-20T09:37:13;22.20;46.00
75738;DHT22;64356;45.638;13.764;2023-12-20T09:39:39;22.20;45.80
75738;DHT22;64356;45.638;13.764;2023-12-20T09:42:05;22.20;46.10
75738;DHT22;64356;45.638;13.764;2023-12-20T09:44:31;22.10;46.20
75738;DHT22;64356;45.638;13.764;2023-12-20T09:46:58;22.20;46.40
75738;DHT22;64356;45.638;13.764;2023-12-20T09:49:25;22.20;46.10
75738;DHT22;64356;45.638;13.764;2023-12-20T09:51:53;22.20;46.30
75738;DHT22;64356;45.638;13.764;2023-12-20T09:54:21;22.10;46.00
75738;DHT22;64356;45.638;13.764;2023-12-20T09:56:47;22.10;46.20
75738;DHT22;64356;45.638;13.764;2023-12-20T09:59:12;22.20;46.30
75738;DHT22;64356;45.638;13.764;2023-12-20T10:01:39;22.20;46.20
75738;DHT22;64356;45.638;13.764;2023-12-20T10:04:05;22.30;46.50
75738;DHT22;64356;45.638;13.764;2023-12-20T10:06:37;22.30;46.60
75738;DHT22;64356;45.638;13.764;2023-12-20T10:09:02;22.30;46.80
75738;DHT22;64356;45.638;13.764;2023-12-20T10:11:29;22.30;46.70
75738;DHT22;64356;45.638;13.764;2023-12-20T10:14:01;22.30;46.60
75738;DHT22;64356;45.638;13.764;2023-12-20T10:16:27;22.20;44.70
75738;DHT22;64356;45.638;13.764;2023-12-20T10:18:56;22.10;44.80
75738;DHT22;64356;45.638;13.764;2023-12-20T10:21:22;22.10;45.10
75738;DHT22;64356;45.638;13.764;2023-12-20T10:23:50;22.00;45.30
75738;DHT22;64356;45.638;13.764;2023-12-20T10:26:20;22.10;45.20
75738;DHT22;64356;45.638;13.764;2023-12-20T10:28:56;22.10;45.00
75738;DHT22;64356;45.638;13.764;2023-12-20T10:31:29;22.10;45.60
75738;DHT22;64356;45.638;13.764;2023-12-20T10:33:57;22.10;45.80
75738;DHT22;64356;45.638;13.764;2023-12-20T10:36:31;22.20;45.70
75738;DHT22;64356;45.638;13.764;2023-12-20T10:38:57;22.10;45.80
75738;DHT22;64356;45.638;13.764;2023-12-20T10:41:27;22.20;46.10
75738;DHT22;64356;45.638;13.764;2023-12-20T10:43:59;22.20;45.90
75738;DHT22;64356;45.638;13.764;2023-12-20T10:46:26;22.20;45.40
75738;DHT22;64356;45.638;13.764;2023-12-20T10:48:53;22.20;45.10
75738;DHT22;64356;45.638;13.764;2023-12-20T10:51:20;22.20;45.40
75738;DHT22;64356;45.638;13.764;2023-12-20T10:53:49;22.20;45.70
75738;DHT22;64356;45.638;13.764;2023-12-20T10:56:18;22.20;45.60
75738;DHT22;64356;45.638;13.764;2023-12-20T10:58:45;22.20;45.60
75738;DHT22;64356;45.638;13.764;2023-12-20T11:01:13;22.20;45.90
75738;DHT22;64356;45.638;13.764;2023-12-20T11:03:39;22.20;46.00
75738;DHT22;64356;45.638;13.764;2023-12-20T11:11:08;22.30;46.60
75738;DHT22;64356;45.638;13.764;2023-12-20T11:13:40;22.40;46.60
75738;DHT22;64356;45.638;13.764;2023-12-20T11:16:09;22.40;46.30
75738;DHT22;64356;45.638;13.764;2023-12-20T11:18:35;22.40;45.90
75738;DHT22;64356;45.638;13.764;2023-12-20T11:21:01;22.40;46.00
75738;DHT22;64356;45.638;13.764;2023-12-20T11:23:30;22.40;45.60
75738;DHT22;64356;45.638;13.764;2023-12-20T11:25:56;22.40;44.90
75738;DHT22;64356;45.638;13.764;2023-12-20T11:28:26;22.50;45.40
75738;DHT22;64356;45.638;13.764;2023-12-20T11:30:52;22.50;44.70
75738;DHT22;64356;45.638;13.764;2023-12-20T11:33:22;22.60;44.30
75738;DHT22;64356;45.638;13.764;2023-12-20T11:35:48;22.60;44.10
75738;DHT22;64356;45.638;13.764;2023-12-20T11:38:14;22.60;44.30
75738;DHT22;64356;45.638;13.764;2023-12-20T11:40:41;22.60;43.70
75738;DHT22;64356;45.638;13.764;2023-12-20T11:43:06;22.70;44.50
75738;DHT22;64356;45.638;13.764;2023-12-20T11:45:32;22.70;43.50
75738;DHT22;64356;45.638;13.764;2023-12-20T11:48:00;22.80;43.40
75738;DHT22;64356;45.638;13.764;2023-12-20T11:50:27;22.70;43.10
75738;DHT22;64356;45.638;13.764;2023-12-20T11:52:53;22.80;43.30
75738;DHT22;64356;45.638;13.764;2023-12-20T11:55:21;22.80;43.70
75738;DHT22;64356;45.638;13.764;2023-12-20T11:57:46;22.80;43.20
75738;DHT22;64356;45.638;13.764;2023-12-20T12:00:13;22.90;44.20
75738;DHT22;64356;45.638;13.764;2023-12-20T12:02:38;22.90;44.30
75738;DHT22;64356;45.638;13.764;2023-12-20T12:05:04;22.90;44.70
75738;DHT22;64356;45.638;13.764;2023-12-20T12:07:33;22.90;45.10
75738;DHT22;64356;45.638;13.764;2023-12-20T12:09:59;22.90;44.90
75738;DHT22;64356;45.638;13.764;2023-12-20T12:12:24;22.90;45.10
75738;DHT22;64356;45.638;13.764;2023-12-20T12:14:52;22.90;45.20
75738;DHT22;64356;45.638;13.764;2023-12-20T12:17:18;22.80;45.30
75738;DHT22;64356;45.638;13.764;2023-12-20T12:19:43;22.80;45.60
75738;DHT22;64356;45.638;13.764;2023-12-20T12:22:10;22.80;45.60
75738;DHT22;64356;45.638;13.764;2023-12-20T12:24:38;22.70;45.50
75738;DHT22;64356;45.638;13.764;2023-12-20T12:27:05;22.70;45.80
75738;DHT22;64356;45.638;13.764;2023-12-20T12:29:31;22.70;45.70
75738;DHT22;64356;45.638;13.764;2023-12-20T12:31:57;22.70;45.90
75738;DHT22;64356;45.638;13.764;2023-12-20T12:34:23;22.60;46.00
75738;DHT22;64356;45.638;13.764;2023-12-20T12:36:48;22.60;46.00
75738;DHT22;64356;45.638;13.764;2023-12-20T12:39:17;22.70;46.00
75738;DHT22;64356;45.638;13.764;2023-12-20T12:41:43;22.70;46.00
75738;DHT22;64356;45.638;13.764;2023-12-20T12:44:09;22.70;46.20
75738;DHT22;64356;45.638;13.764;2023-12-20T12:46:34;22.70;45.60
75738;DHT22;64356;45.638;13.764;2023-12-20T12:49:00;22.80;46.20
75738;DHT22;64356;45.638;13.764;2023-12-20T12:51:25;22.80;45.50
75738;DHT22;64356;45.638;13.764;2023-12-20T12:53:53;22.80;44.70
75738;DHT22;64356;45.638;13.764;2023-12-20T12:56:18;22.60;43.10
75738;DHT22;64356;45.638;13.764;2023-12-20T12:58:44;22.30;43.00
75738;DHT22;64356;45.638;13.764;2023-12-20T13:01:10;22.10;42.70
75738;DHT22;64356;45.638;13.764;2023-12-20T13:03:35;21.90;43.10
75738;DHT22;64356;45.638;13.764;2023-12-20T13:06:01;21.90;44.30
75738;DHT22;64356;45.638;13.764;2023-12-20T13:08:26;22.00;44.80
75738;DHT22;64356;45.638;13.764;2023-12-20T13:10:52;22.10;44.70
75738;DHT22;64356;45.638;13.764;2023-12-20T13:13:18;22.20;45.00
75738;DHT22;64356;45.638;13.764;2023-12-20T13:15:43;22.30;45.20
75738;DHT22;64356;45.638;13.764;2023-12-20T13:18:16;22.40;45.00
75738;DHT22;64356;45.638;13.764;2023-12-20T13:20:43;22.50;45.30
75738;DHT22;64356;45.638;13.764;2023-12-20T13:23:09;22.50;46.30
75738;DHT22;64356;45.638;13.764;2023-12-20T13:25:34;22.50;46.50
75738;DHT22;64356;45.638;13.764;2023-12-20T13:28:00;22.50;47.40
75738;DHT22;64356;45.638;13.764;2023-12-20T13:30:26;22.50;47.40
75738;DHT22;64356;45.638;13.764;2023-12-20T13:32:51;22.50;48.00
75738;DHT22;64356;45.638;13.764;2023-12-20T13:35:17;22.50;48.60
75738;DHT22;64356;45.638;13.764;2023-12-20T13:37:43;22.60;48.60
75738;DHT22;64356;45.638;13.764;2023-12-20T13:40:09;22.60;48.40
75738;DHT22;64356;45.638;13.764;2023-12-20T13:42:35;22.60;48.40
75738;DHT22;64356;45.638;13.764;2023-12-20T13:45:01;22.60;48.50
75738;DHT22;64356;45.638;13.764;2023-12-20T13:47:26;22.60;49.20
75738;DHT22;64356;45.638;13.764;2023-12-20T13:49:52;22.70;48.90
75738;DHT22;64356;45.638;13.764;2023-12-20T13:52:17;22.70;48.40
75738;DHT22;64356;45.638;13.764;2023-12-20T13:54:44;22.70;48.50
75738;DHT22;64356;45.638;13.764;2023-12-20T13:57:09;22.60;48.50
75738;DHT22;64356;45.638;13.764;2023-12-20T13:59:35;22.60;49.20
75738;DHT22;64356;45.638;13.764;2023-12-20T14:02:00;22.60;49.70
75738;DHT22;64356;45.638;13.764;2023-12-20T14:04:28;22.60;49.40
75738;DHT22;64356;45.638;13.764;2023-12-20T14:06:54;22.60;49.50
75738;DHT22;64356;45.638;13.764;2023-12-20T14:09:20;22.60;49.20
75738;DHT22;64356;45.638;13.764;2023-12-20T14:11:46;22.60;49.30
75738;DHT22;64356;45.638;13.764;2023-12-20T14:14:12;22.60;49.30
75738;DHT22;64356;45.638;13.764;2023-12-20T14:16:37;22.60;49.00
75738;DHT22;64356;45.638;13.764;2023-12-20T14:19:03;22.60;48.40
75738;DHT22;64356;45.638;13.764;2023-12-20T14:21:30;22.60;47.80
75738;DHT22;64356;45.638;13.764;2023-12-20T14:23:56;22.60;48.10
75738;DHT22;64356;45.638;13.764;2023-12-20T14:26:21;22.60;48.50
75738;DHT22;64356;45.638;13.764;2023-12-20T14:28:47;22.60;48.40
75738;DHT22;64356;45.638;13.764;2023-12-20T14:31:12;22.70;48.20
75738;DHT22;64356;45.638;13.764;2023-12-20T14:33:38;22.60;48.60
75738;DHT22;64356;45.638;13.764;2023-12-20T14:36:04;22.70;48.20
75738;DHT22;64356;45.638;13.764;2023-12-20T14:38:30;22.70;48.30
75738;DHT22;64356;45.638;13.764;2023-12-20T14:40:56;22.70;48.20
75738;DHT22;64356;45.638;13.764;2023-12-20T14:43:22;22.70;48.20
75738;DHT22;64356;45.638;13.764;2023-12-20T14:45:48;22.70;48.30
75738;DHT22;64356;45.638;13.764;2023-12-20T14:48:13;22.70;48.10
75738;DHT22;64356;45.638;13.764;2023-12-20T14:50:39;22.70;48.30
75738;DHT22;64356;45.638;13.764;2023-12-20T14:53:06;22.70;48.20
75738;DHT22;64356;45.638;13.764;2023-12-20T14:55:32;22.70;48.30
75738;DHT22;64356;45.638;13.764;2023-12-20T14:57:59;22.70;48.40
75738;DHT22;64356;45.638;13.764;2023-12-20T15:00:25;22.70;47.90
75738;DHT22;64356;45.638;13.764;2023-12-20T15:02:50;22.70;47.00
75738;DHT22;64356;45.638;13.764;2023-12-20T15:05:16;22.70;48.00
75738;DHT22;64356;45.638;13.764;2023-12-20T15:07:43;22.70;48.00
75738;DHT22;64356;45.638;13.764;2023-12-20T15:10:08;22.70;47.80
75738;DHT22;64356;45.638;13.764;2023-12-20T15:12:34;22.70;48.20